Time;durP1;ratioP1;P1;durP2;ratioP2;P2;SDS_P1;SDS_P2;PMS_P1;PMS_P2;Temp;Humidity;BMP_temperature;BMP_pressure;BME280_temperature;BME280_humidity;BME280_pressure;Samples;Min_cycle;Max_cycle;Signal;HPM_P1;HPM_P2
2023/05/06 00:01:19;;;;;;;7.10;5.45;;;;;;;14.16;62.05;99896.81;5088543;22;20052;-78
2023/05/06 00:03:46;;;;;;;8.95;5.78;;;;;;;14.15;62.00;99899.56;5051396;28;20571;-78
2023/05/06 00:06:13;;;;;;;6.43;5.72;;;;;;;14.13;61.96;99899.66;5051431;28;20045;-78
2023/05/06 00:08:39;;;;;;;8.02;5.80;;;;;;;14.11;62.31;99904.22;5049725;28;20056;-79
2023/05/06 00:11:06;;;;;;;7.53;6.15;;;;;;;14.11;62.31;99906.03;5051405;28;20056;-77
2023/05/06 00:13:32;;;;;;;7.10;5.78;;;;;;;14.06;62.24;99899.25;5051449;28;20072;-77
2023/05/06 00:15:59;;;;;;;10.23;5.72;;;;;;;14.05;62.51;99894.91;5050892;28;20109;-79
2023/05/06 00:18:26;;;;;;;6.32;5.20;;;;;;;14.04;62.79;99900.31;5050754;28;20136;-77
2023/05/06 00:20:52;;;;;;;8.50;6.15;;;;;;;14.02;62.74;99894.28;5051367;28;20049;-78
2023/05/06 00:23:18;;;;;;;7.47;6.45;;;;;;;14.01;62.78;99895.22;5051304;28;20497;-77
2023/05/06 00:25:45;;;;;;;7.35;5.80;;;;;;;14.01;62.90;99900.50;5050791;28;20048;-79
2023/05/06 00:28:11;;;;;;;8.15;6.40;;;;;;;14.00;62.95;99893.53;5050673;28;20049;-80
2023/05/06 00:30:38;;;;;;;6.72;5.70;;;;;;;14.00;62.84;99898.81;5050998;28;20450;-78
2023/05/06 00:33:04;;;;;;;6.68;5.97;;;;;;;13.98;63.07;99893.63;5050888;28;20053;-78
2023/05/06 00:35:31;;;;;;;7.25;5.82;;;;;;;13.97;63.00;99888.47;5050761;28;20498;-77
2023/05/06 00:38:10;;;;;;;8.77;6.15;;;;;;;13.93;64.52;99901.91;5050673;28;20051;-77
2023/05/06 00:40:37;;;;;;;6.78;5.78;;;;;;;13.96;63.05;99894.69;5050157;28;20064;-77
2023/05/06 00:43:04;;;;;;;6.97;6.03;;;;;;;13.94;63.14;99897.44;5050870;28;20055;-77
2023/05/06 00:45:31;;;;;;;7.93;6.60;;;;;;;13.94;63.21;99897.44;5050329;28;20057;-78
2023/05/06 00:47:58;;;;;;;7.00;6.10;;;;;;;13.92;63.03;99902.88;5050724;28;20064;-78
2023/05/06 00:50:27;;;;;;;8.55;6.78;;;;;;;13.91;63.66;99910.91;5050800;28;20049;-77
2023/05/06 00:52:54;;;;;;;7.00;6.18;;;;;;;13.90;63.33;99904.75;5050697;28;20065;-78
2023/05/06 00:55:20;;;;;;;7.65;6.45;;;;;;;13.89;63.44;99904.84;5050263;28;20067;-77
2023/05/06 00:57:50;;;;;;;8.35;6.80;;;;;;;13.89;63.65;99899.56;5048792;28;20580;-79
2023/05/06 01:00:18;;;;;;;7.97;6.60;;;;;;;13.89;63.98;99897.78;5050668;28;20049;-78
2023/05/06 01:02:46;;;;;;;9.02;6.93;;;;;;;13.89;64.04;99892.47;5050454;28;20084;-79
2023/05/06 01:05:20;;;;;;;8.00;6.32;;;;;;;13.89;64.84;99884.53;5050170;28;20083;-78
2023/05/06 01:08:11;;;;;;;7.63;6.63;;;;;;;13.91;63.89;99879.16;5050103;28;20049;-79
2023/05/06 01:10:48;;;;;;;7.20;6.40;;;;;;;13.90;64.87;99882.72;5050843;28;20053;-79
2023/05/06 01:13:37;;;;;;;7.93;6.70;;;;;;;13.91;64.42;99887.91;5050668;28;20049;-77
2023/05/06 01:16:07;;;;;;;7.75;6.50;;;;;;;13.92;64.00;99888.78;5048835;28;20102;-78
2023/05/06 01:18:37;;;;;;;8.07;6.45;;;;;;;13.93;63.81;99891.31;5049925;28;20045;-77
2023/05/06 01:21:04;;;;;;;7.88;6.38;;;;;;;13.92;63.75;99884.34;5050317;28;20408;-79
2023/05/06 01:23:55;;;;;;;8.88;6.43;;;;;;;13.88;64.62;99882.88;5049350;28;20421;-78
2023/05/06 01:26:22;;;;;;;8.35;5.93;;;;;;;13.92;63.50;99880.84;5050065;28;20045;-77
2023/05/06 01:28:49;;;;;;;7.25;6.53;;;;;;;13.90;63.33;99880.94;5049833;28;20489;-77
2023/05/06 01:31:34;;;;;;;7.85;6.95;;;;;;;13.88;64.19;99877.56;5050179;28;20103;-77
2023/05/06 01:34:30;;;;;;;7.82;6.68;;;;;;;13.83;64.52;99876.19;5050517;28;20045;-78
2023/05/06 01:36:56;;;;;;;8.57;6.97;;;;;;;13.86;63.17;99879.47;5049370;28;20136;-77
2023/05/06 01:39:25;;;;;;;7.30;6.45;;;;;;;13.82;63.39;99875.31;5050102;28;20049;-77
2023/05/06 01:41:56;;;;;;;8.02;7.22;;;;;;;13.80;63.65;99882.53;5050286;28;20049;-77
2023/05/06 01:44:23;;;;;;;7.68;6.88;;;;;;;13.79;63.48;99880.81;5050445;28;20083;-78
2023/05/06 01:46:52;;;;;;;11.65;7.60;;;;;;;13.77;63.69;99888.88;5049263;28;20114;-78
2023/05/06 01:49:21;;;;;;;10.80;7.75;;;;;;;13.75;63.97;99885.50;5050202;28;20136;-77
2023/05/06 01:51:50;;;;;;;9.07;7.47;;;;;;;13.75;64.02;99887.31;5051901;28;20057;-77
2023/05/06 01:54:17;;;;;;;9.93;8.05;;;;;;;13.75;64.29;99888.13;5052702;28;20064;-77
2023/05/06 01:56:43;;;;;;;9.48;7.97;;;;;;;13.75;64.32;99879.38;5052988;28;20049;-77
2023/05/06 01:59:10;;;;;;;10.27;8.07;;;;;;;13.78;64.60;99889.72;5053920;28;20045;-79
2023/05/06 02:01:36;;;;;;;9.10;7.65;;;;;;;13.78;64.70;99889.72;5053649;28;20049;-78
2023/05/06 02:04:03;;;;;;;12.43;8.27;;;;;;;13.80;64.74;99882.53;5053802;28;20084;-78
2023/05/06 02:06:31;;;;;;;8.57;7.68;;;;;;;13.81;64.59;99890.38;5053311;28;20548;-77
2023/05/06 02:08:57;;;;;;;10.18;7.85;;;;;;;13.81;64.80;99882.44;5053641;28;20424;-78
2023/05/06 02:11:24;;;;;;;10.30;8.77;;;;;;;13.84;64.83;99889.31;5053790;28;20144;-78
2023/05/06 02:13:51;;;;;;;10.10;7.80;;;;;;;13.85;64.48;99891.00;5053756;28;20064;-78
2023/05/06 02:16:17;;;;;;;8.32;7.22;;;;;;;13.86;64.67;99897.16;5053312;28;20045;-78
2023/05/06 02:18:44;;;;;;;8.45;6.90;;;;;;;13.87;64.63;99897.03;5053164;28;20084;-77
2023/05/06 02:21:11;;;;;;;9.93;7.68;;;;;;;13.88;64.73;99888.16;5053363;28;20049;-78
2023/05/06 02:23:37;;;;;;;9.30;7.47;;;;;;;13.87;64.50;99891.72;5053420;28;20084;-78
2023/05/06 02:26:04;;;;;;;9.38;7.45;;;;;;;13.88;64.45;99897.88;5053267;28;20045;-78
2023/05/06 02:28:30;;;;;;;12.75;7.82;;;;;;;13.86;64.40;99889.22;5051812;28;20052;-77
2023/05/06 02:30:57;;;;;;;8.57;6.78;;;;;;;13.84;64.44;99891.97;5053377;28;20482;-78
2023/05/06 02:33:24;;;;;;;9.43;7.78;;;;;;;13.83;64.58;99892.06;5053284;28;20052;-80
2023/05/06 02:35:50;;;;;;;8.52;6.65;;;;;;;13.81;64.64;99885.09;5052797;28;20053;-77
2023/05/06 02:38:18;;;;;;;6.68;5.80;;;;;;;13.80;64.68;99888.66;5052576;28;20057;-77
2023/05/06 02:40:44;;;;;;;9.65;6.20;;;;;;;13.80;64.46;99887.84;5053249;28;20049;-78
2023/05/06 02:43:11;;;;;;;10.07;7.65;;;;;;;13.80;64.40;99887.84;5053255;28;20057;-77
2023/05/06 02:45:38;;;;;;;10.13;7.22;;;;;;;13.80;64.25;99888.66;5052803;28;20079;-77
2023/05/06 02:48:05;;;;;;;8.98;6.88;;;;;;;13.80;64.34;99893.13;5051596;28;20049;-78
2023/05/06 02:50:31;;;;;;;11.05;7.50;;;;;;;13.79;64.47;99896.69;5053252;28;20156;-77
2023/05/06 02:52:58;;;;;;;9.90;8.00;;;;;;;13.78;64.28;99895.00;5053004;28;20148;-78
2023/05/06 02:55:24;;;;;;;8.77;7.20;;;;;;;13.74;64.32;99891.75;5052694;28;20041;-77
2023/05/06 02:57:51;;;;;;;10.38;8.43;;;;;;;13.72;64.62;99890.16;5052544;28;20160;-78
2023/05/06 03:00:17;;;;;;;10.80;8.43;;;;;;;13.71;64.73;99904.34;5068159;28;20075;-77
2023/05/06 03:02:44;;;;;;;7.97;6.68;;;;;;;13.70;64.81;99902.63;5051598;28;20501;-78
2023/05/06 03:05:11;;;;;;;11.68;7.82;;;;;;;13.70;64.67;99897.31;5052333;28;20801;-78
2023/05/06 03:07:38;;;;;;;10.05;8.77;;;;;;;13.68;64.72;99900.06;5052256;28;20052;-78
2023/05/06 03:10:05;;;;;;;10.82;8.65;;;;;;;13.68;64.77;99906.22;5052660;28;20140;-79
2023/05/06 03:12:31;;;;;;;10.70;8.98;;;;;;;13.67;64.99;99909.81;5052649;28;20056;-77
2023/05/06 03:14:58;;;;;;;10.48;8.02;;;;;;;13.67;64.88;99909.81;5052073;28;20416;-78
2023/05/06 03:17:24;;;;;;;8.57;7.68;;;;;;;13.66;64.73;99910.78;5051829;28;20511;-78
2023/05/06 03:19:51;;;;;;;12.30;9.15;;;;;;;13.65;64.58;99911.72;5052593;28;20478;-77
2023/05/06 03:22:17;;;;;;;13.48;10.63;;;;;;;13.64;64.54;99910.03;5067872;28;20051;-77
2023/05/06 03:24:44;;;;;;;11.80;10.07;;;;;;;13.62;64.46;99906.66;5052248;28;20044;-77
2023/05/06 03:27:11;;;;;;;13.23;10.45;;;;;;;13.60;64.56;99902.41;5050495;28;20481;-78
2023/05/06 03:29:37;;;;;;;14.80;11.43;;;;;;;13.58;64.90;99888.44;5052144;28;20139;-77
2023/05/06 03:32:04;;;;;;;13.10;9.73;;;;;;;13.54;64.89;99893.09;5052050;28;20053;-77
2023/05/06 03:34:31;;;;;;;103.63;12.25;;;;;;;13.51;64.97;99894.16;5052211;28;20629;-77
2023/05/06 03:36:57;;;;;;;52.92;11.73;;;;;;;13.48;65.23;99889.06;5051517;28;20059;-78
2023/05/06 03:39:24;;;;;;;24.65;11.38;;;;;;;13.47;65.20;99886.47;5051990;28;20052;-77
2023/05/06 03:41:50;;;;;;;23.85;10.38;;;;;;;13.45;65.37;99889.22;5050743;28;20223;-77
2023/05/06 03:44:17;;;;;;;19.02;9.93;;;;;;;13.44;65.07;99892.81;5051839;28;20405;-79
2023/05/06 03:46:43;;;;;;;42.60;9.90;;;;;;;13.43;64.97;99888.50;5051049;28;20053;-77
2023/05/06 03:49:09;;;;;;;22.27;9.02;;;;;;;13.41;65.10;99899.16;5050627;28;20053;-77
2023/05/06 03:51:36;;;;;;;29.65;8.07;;;;;;;13.39;64.78;99885.19;5051862;28;20077;-78
2023/05/06 03:54:03;;;;;;;6.70;6.00;;;;;;;13.38;64.75;99888.78;5051611;28;20490;-77
2023/05/06 03:56:30;;;;;;;6.50;5.78;;;;;;;13.36;64.79;99884.56;5051404;28;20045;-77
2023/05/06 03:58:56;;;;;;;6.95;5.35;;;;;;;13.33;64.99;99884.75;5051095;28;20675;-78
2023/05/06 04:01:23;;;;;;;5.18;4.68;;;;;;;13.29;64.73;99874.41;5051421;28;20052;-77
2023/05/06 04:03:50;;;;;;;6.28;4.95;;;;;;;13.27;64.39;99873.63;5051719;28;20045;-77
2023/05/06 04:06:17;;;;;;;8.63;7.30;;;;;;;13.25;64.73;99879.97;5049823;28;20559;-77
2023/05/06 04:08:43;;;;;;;13.82;10.40;;;;;;;13.24;65.25;99886.22;5050554;28;20059;-78
2023/05/06 04:11:10;;;;;;;14.63;11.30;;;;;;;13.23;65.71;99884.53;5051355;28;20048;-77
2023/05/06 04:13:37;;;;;;;14.63;10.88;;;;;;;13.22;66.17;99882.81;5051073;28;20059;-79
2023/05/06 04:16:04;;;;;;;13.40;10.48;;;;;;;13.21;66.50;99881.13;5051149;28;20399;-77
2023/05/06 04:18:31;;;;;;;11.32;9.20;;;;;;;13.22;66.80;99882.81;5051020;28;20417;-77
2023/05/06 04:20:59;;;;;;;11.48;8.15;;;;;;;13.23;66.87;99884.53;5051162;28;20064;-77
2023/05/06 04:23:25;;;;;;;11.40;8.75;;;;;;;13.24;67.08;99884.41;5051155;28;20198;-79
2023/05/06 04:25:51;;;;;;;12.35;8.75;;;;;;;13.24;67.22;99884.41;5050647;28;20064;-78
2023/05/06 04:28:18;;;;;;;14.43;8.95;;;;;;;13.25;67.29;99887.91;5050513;28;20390;-80
2023/05/06 04:30:45;;;;;;;16.77;8.50;;;;;;;13.25;67.51;99894.06;5051158;28;20068;-77
2023/05/06 04:33:12;;;;;;;10.48;8.23;;;;;;;13.26;67.45;99894.88;5049973;28;20048;-77
2023/05/06 04:35:39;;;;;;;10.05;8.25;;;;;;;13.26;67.71;99897.53;5050466;28;20052;-78
2023/05/06 04:38:05;;;;;;;10.27;8.57;;;;;;;13.27;67.78;99909.81;5050541;28;20129;-77
2023/05/06 04:40:35;;;;;;;11.07;8.68;;;;;;;13.27;68.02;99913.28;5050806;28;20052;-77
2023/05/06 04:43:01;;;;;;;11.27;9.15;;;;;;;13.29;67.81;99916.69;5050824;28;20079;-78
2023/05/06 04:45:28;;;;;;;41.75;10.20;;;;;;;13.32;68.08;99907.72;5049354;28;20099;-78
2023/05/06 04:47:55;;;;;;;34.13;8.93;;;;;;;13.33;67.96;99913.84;5050474;28;20060;-77
2023/05/06 04:50:21;;;;;;;19.48;9.07;;;;;;;13.32;67.76;99920.94;5050819;28;20449;-78
2023/05/06 04:52:48;;;;;;;33.50;8.75;;;;;;;13.30;67.70;99922.81;5050702;28;20132;-79
2023/05/06 04:55:14;;;;;;;14.40;8.90;;;;;;;13.28;67.64;99922.09;5048982;28;20048;-79
2023/05/06 04:57:40;;;;;;;13.25;8.93;;;;;;;13.26;67.83;99924.81;5050144;28;20413;-79
2023/05/06 05:00:09;;;;;;;12.23;8.45;;;;;;;13.26;68.00;99934.53;5050636;28;20067;-80
2023/05/06 05:02:35;;;;;;;13.10;9.50;;;;;;;13.23;68.09;99935.59;5050457;28;20111;-78
2023/05/06 05:05:02;;;;;;;12.65;8.98;;;;;;;13.21;68.19;99929.56;5050199;28;20539;-79
2023/05/06 05:07:29;;;;;;;10.50;9.02;;;;;;;13.22;68.30;99939.19;5050098;28;20057;-78
2023/05/06 05:09:55;;;;;;;11.10;9.10;;;;;;;13.22;68.42;99940.97;5050399;28;20126;-80
2023/05/06 05:12:22;;;;;;;12.50;9.88;;;;;;;13.23;68.73;99942.69;5050881;28;20103;-78
2023/05/06 05:14:48;;;;;;;11.57;9.57;;;;;;;13.24;68.77;99933.81;5050003;28;20049;-79
2023/05/06 05:17:15;;;;;;;11.88;9.82;;;;;;;13.27;69.01;99941.53;5050215;28;20447;-78
2023/05/06 05:19:41;;;;;;;13.68;10.95;;;;;;;13.31;68.90;99937.75;5050365;28;20072;-78
2023/05/06 05:22:08;;;;;;;13.70;10.10;;;;;;;13.33;69.24;99941.13;5050291;28;20053;-78
2023/05/06 05:24:34;;;;;;;11.95;9.68;;;;;;;13.38;69.25;99943.47;5050260;28;20049;-79
2023/05/06 05:27:01;;;;;;;11.30;9.48;;;;;;;13.43;69.23;99936.91;5051804;28;20049;-78
2023/05/06 05:29:27;;;;;;;11.65;8.93;;;;;;;13.48;69.28;99922.56;5054667;28;20061;-78
2023/05/06 05:31:54;;;;;;;13.55;10.02;;;;;;;13.55;69.21;99926.50;5054325;28;20493;-79
2023/05/06 05:34:20;;;;;;;11.73;8.77;;;;;;;13.61;69.23;99927.91;5054473;28;20045;-78
2023/05/06 05:36:47;;;;;;;12.00;8.95;;;;;;;13.69;69.26;99928.25;5068697;28;20057;-78
2023/05/06 05:39:13;;;;;;;11.30;9.18;;;;;;;13.78;69.16;99934.69;5054145;28;20057;-79
2023/05/06 05:41:40;;;;;;;13.10;9.63;;;;;;;13.86;69.05;99931.56;5054355;28;20056;-77
2023/05/06 05:44:06;;;;;;;12.77;9.60;;;;;;;13.92;69.27;99931.13;5054409;28;20436;-77
2023/05/06 05:46:33;;;;;;;11.27;9.65;;;;;;;13.99;68.84;99934.19;5053489;28;20056;-78
2023/05/06 05:48:59;;;;;;;12.32;9.52;;;;;;;14.06;68.91;99946.06;5054328;28;20135;-77
2023/05/06 05:51:26;;;;;;;11.63;9.52;;;;;;;14.11;68.78;99943.94;5053920;28;20111;-78
2023/05/06 05:53:52;;;;;;;10.63;8.90;;;;;;;14.18;68.69;99949.66;5052713;28;20049;-78
2023/05/06 05:56:19;;;;;;;11.93;8.55;;;;;;;14.24;68.60;99951.03;5053721;28;20069;-77
2023/05/06 05:58:46;;;;;;;11.38;8.75;;;;;;;14.28;68.27;99949.88;5053668;28;20072;-77
2023/05/06 06:03:46;;;;;;;9.85;8.43;;;;;;;14.41;68.32;99949.84;5025742;22;20064;-76
2023/05/06 06:06:13;;;;;;;8.90;7.50;;;;;;;14.45;68.32;99954.81;5053175;28;20411;-76
2023/05/06 06:08:40;;;;;;;10.02;7.25;;;;;;;14.52;68.06;99959.69;5053357;28;20041;-76
2023/05/06 06:11:06;;;;;;;9.05;7.85;;;;;;;14.56;67.90;99953.22;5053595;28;20053;-76
2023/05/06 06:13:33;;;;;;;9.43;7.75;;;;;;;14.62;67.74;99952.78;5053980;28;20436;-76
2023/05/06 06:15:59;;;;;;;11.82;9.18;;;;;;;14.67;67.57;99960.41;5053353;28;20048;-76
2023/05/06 06:18:26;;;;;;;10.50;8.82;;;;;;;14.70;67.43;99966.31;5053514;28;20047;-76
2023/05/06 06:20:52;;;;;;;11.77;8.27;;;;;;;14.73;67.47;99971.41;5053391;28;20486;-76
2023/05/06 06:23:19;;;;;;;10.93;8.85;;;;;;;14.76;67.31;99965.06;5053546;28;20056;-76
2023/05/06 06:25:46;;;;;;;11.63;9.82;;;;;;;14.79;67.27;99966.66;5052995;28;20063;-76
2023/05/06 06:28:13;;;;;;;12.38;10.10;;;;;;;14.83;67.39;99957.53;5053146;28;20045;-76
2023/05/06 06:30:40;;;;;;;13.25;9.82;;;;;;;14.84;67.47;99961.91;5053312;28;20056;-76
2023/05/06 06:33:06;;;;;;;14.93;9.55;;;;;;;14.87;67.47;99972.25;5053266;28;20049;-76
2023/05/06 06:35:33;;;;;;;11.50;9.40;;;;;;;14.91;67.32;99970.25;5035166;28;20084;-76
2023/05/06 06:38:00;;;;;;;10.63;8.55;;;;;;;14.95;67.07;99975.19;5051365;28;20048;-76
2023/05/06 06:40:26;;;;;;;11.65;8.50;;;;;;;15.00;67.19;99980.19;5052997;28;20059;-76
2023/05/06 06:42:53;;;;;;;12.85;8.55;;;;;;;15.04;66.95;99975.50;5053208;28;20053;-76
2023/05/06 06:45:20;;;;;;;10.48;7.85;;;;;;;15.08;66.82;99977.81;5052659;28;20468;-76
2023/05/06 06:47:46;;;;;;;12.80;8.35;;;;;;;15.13;66.97;99974.81;5052654;28;20091;-76
2023/05/06 06:50:13;;;;;;;11.30;8.68;;;;;;;15.16;66.87;99982.56;5035216;28;20498;-76
2023/05/06 06:52:39;;;;;;;9.25;7.63;;;;;;;15.22;67.01;99983.94;5052671;28;20404;-76
2023/05/06 06:55:06;;;;;;;8.82;7.50;;;;;;;15.27;66.92;99983.56;5034909;28;20041;-76
2023/05/06 06:57:33;;;;;;;9.15;7.25;;;;;;;15.32;66.87;99992.03;5052499;28;20049;-76
2023/05/06 07:00:00;;;;;;;10.43;7.85;;;;;;;15.37;66.80;99987.25;5052838;28;20056;-76
2023/05/06 07:02:26;;;;;;;10.00;8.13;;;;;;;15.43;66.67;99988.59;5042813;28;20051;-76
2023/05/06 07:04:53;;;;;;;10.00;7.90;;;;;;;15.48;66.67;99984.66;5072303;28;20079;-76
2023/05/06 07:07:19;;;;;;;8.45;7.25;;;;;;;15.53;66.67;99983.44;5054379;28;20044;-76
2023/05/06 07:09:46;;;;;;;10.65;7.93;;;;;;;15.59;66.72;99990.97;5072826;28;20046;-76
2023/05/06 07:12:12;;;;;;;8.68;7.57;;;;;;;15.62;66.69;99988.06;5072445;28;20140;-77
2023/05/06 07:14:40;;;;;;;8.27;7.28;;;;;;;15.67;66.78;99983.28;5072528;28;20070;-77
2023/05/06 07:17:06;;;;;;;9.77;7.78;;;;;;;15.71;66.44;99992.72;5071773;28;20115;-76
2023/05/06 07:19:33;;;;;;;8.70;7.30;;;;;;;15.75;66.19;99991.50;5072331;28;20132;-76
2023/05/06 07:22:01;;;;;;;9.80;7.07;;;;;;;15.81;66.24;99992.03;5072453;28;20047;-76
2023/05/06 07:24:27;;;;;;;7.45;6.40;;;;;;;15.84;65.94;99994.41;5072468;28;20051;-76
2023/05/06 07:26:54;;;;;;;7.40;6.60;;;;;;;15.85;65.54;99999.63;5071927;28;20131;-77
2023/05/06 07:29:20;;;;;;;8.63;6.38;;;;;;;15.88;65.50;99998.53;5072232;28;20053;-76
2023/05/06 07:31:47;;;;;;;10.05;7.75;;;;;;;15.88;65.92;100009.16;5054331;28;20512;-76
2023/05/06 07:34:13;;;;;;;8.50;7.60;;;;;;;15.87;65.26;100002.16;5072044;28;20052;-76
2023/05/06 07:36:42;;;;;;;9.50;8.02;;;;;;;15.86;65.33;100001.31;5071422;28;20056;-76
2023/05/06 07:39:09;;;;;;;11.43;8.63;;;;;;;15.84;65.58;100008.56;5071885;28;20056;-77
2023/05/06 07:41:36;;;;;;;9.38;8.02;;;;;;;15.83;65.64;100011.31;5072113;28;20074;-76
2023/05/06 07:44:02;;;;;;;8.73;7.82;;;;;;;15.81;65.69;100013.25;5071914;28;20045;-76
2023/05/06 07:46:29;;;;;;;10.23;8.65;;;;;;;15.81;66.14;100018.56;5071581;28;20057;-76
2023/05/06 07:48:56;;;;;;;9.50;8.07;;;;;;;15.81;66.38;100022.03;5053004;28;20505;-76
2023/05/06 07:51:22;;;;;;;9.52;7.97;;;;;;;15.83;66.37;100021.94;5071857;28;20134;-77
2023/05/06 07:53:49;;;;;;;10.73;8.13;;;;;;;15.85;66.29;100028.00;5071818;28;20067;-76
2023/05/06 07:56:17;;;;;;;10.43;8.57;;;;;;;15.86;65.93;100024.38;5071328;28;20052;-76
2023/05/06 07:58:43;;;;;;;11.32;8.75;;;;;;;15.88;66.08;100027.75;5071265;28;20090;-76
2023/05/06 08:01:09;;;;;;;8.43;7.43;;;;;;;15.89;66.22;100024.16;5071509;28;20443;-76
2023/05/06 08:03:36;;;;;;;9.98;8.75;;;;;;;15.90;66.29;100023.16;5071623;28;20139;-76
2023/05/06 08:06:03;;;;;;;9.73;8.05;;;;;;;15.93;66.07;100033.56;5070990;28;20131;-76
2023/05/06 08:08:30;;;;;;;9.55;8.48;;;;;;;15.96;66.40;100028.03;5071130;28;20048;-76
2023/05/06 08:10:57;;;;;;;9.82;8.13;;;;;;;16.01;66.48;100033.84;5071331;28;20497;-76
2023/05/06 08:13:24;;;;;;;9.07;8.18;;;;;;;16.05;66.86;100030.97;5053462;28;20498;-76
2023/05/06 08:15:51;;;;;;;11.70;8.32;;;;;;;16.13;67.05;100034.75;5070959;28;20048;-76
2023/05/06 08:18:18;;;;;;;9.95;8.10;;;;;;;16.22;67.10;100035.84;5070798;28;20053;-76
2023/05/06 08:20:49;;;;;;;8.38;7.15;;;;;;;16.31;67.13;100038.75;5054051;28;20105;-76
2023/05/06 08:23:15;;;;;;;8.27;7.38;;;;;;;16.39;66.68;100036.34;5071459;28;20056;-76
2023/05/06 08:25:42;;;;;;;8.90;7.10;;;;;;;16.50;66.17;100044.34;5070665;28;20052;-77
2023/05/06 08:28:08;;;;;;;8.05;7.05;;;;;;;16.58;65.96;100045.53;5070968;28;20052;-76
2023/05/06 08:30:35;;;;;;;9.32;7.20;;;;;;;16.67;65.45;100048.34;5071116;28;20044;-77
2023/05/06 08:33:02;;;;;;;7.35;6.65;;;;;;;16.74;65.46;100040.72;5071357;28;20064;-76
2023/05/06 08:35:28;;;;;;;7.63;6.93;;;;;;;16.82;65.53;100049.91;5070844;28;20052;-76
2023/05/06 08:37:55;;;;;;;9.45;7.70;;;;;;;16.90;65.58;100047.50;5070771;28;20098;-76
2023/05/06 08:40:23;;;;;;;9.02;7.45;;;;;;;16.99;65.77;100040.59;5071021;28;20071;-76
2023/05/06 08:42:49;;;;;;;8.90;7.32;;;;;;;17.06;65.70;100040.03;5071095;28;20160;-76
2023/05/06 08:45:16;;;;;;;9.68;8.30;;;;;;;17.16;65.68;100040.13;5070389;28;20400;-77
2023/05/06 08:47:43;;;;;;;9.73;8.27;;;;;;;17.25;65.55;100040.34;5070585;28;20052;-77
2023/05/06 08:50:10;;;;;;;8.90;8.00;;;;;;;17.34;65.43;100041.44;5053109;28;20071;-77
2023/05/06 08:52:38;;;;;;;8.73;7.38;;;;;;;17.40;65.35;100039.13;5070990;28;20084;-76
2023/05/06 08:55:06;;;;;;;7.70;6.88;;;;;;;17.52;65.77;100047.03;5070252;28;20055;-76
2023/05/06 08:57:33;;;;;;;6.93;6.22;;;;;;;17.60;64.84;100044.59;5052501;28;20051;-76
2023/05/06 09:00:00;;;;;;;7.10;6.30;;;;;;;17.70;64.76;100050.88;5070461;28;20080;-77
2023/05/06 09:02:27;;;;;;;8.18;7.38;;;;;;;17.81;64.68;100051.78;5052175;28;20415;-76
2023/05/06 09:04:55;;;;;;;7.07;6.38;;;;;;;17.91;64.70;100049.22;5070351;28;20098;-76
2023/05/06 09:07:23;;;;;;;8.50;7.60;;;;;;;18.01;64.34;100055.44;5069950;28;20109;-76
2023/05/06 09:09:50;;;;;;;8.27;7.22;;;;;;;18.11;64.32;100044.91;5070855;28;20388;-77
2023/05/06 09:12:17;;;;;;;7.45;6.72;;;;;;;18.21;64.65;100047.66;5070599;28;20048;-76
2023/05/06 09:14:45;;;;;;;6.90;6.20;;;;;;;18.31;63.77;100037.03;5070560;28;20154;-76
2023/05/06 09:17:22;;;;;;;6.93;6.22;;;;;;;18.38;63.73;100042.72;5069982;28;20094;-76
2023/05/06 09:19:55;;;;;;;6.82;6.22;;;;;;;18.51;63.47;100039.81;5070596;28;20054;-76
2023/05/06 09:22:23;;;;;;;7.22;5.95;;;;;;;18.59;62.86;100043.53;5052654;28;20088;-76
2023/05/06 09:24:56;;;;;;;7.70;6.70;;;;;;;18.67;63.03;100042.84;5070186;28;20045;-76
2023/05/06 09:27:28;;;;;;;8.00;6.90;;;;;;;18.73;63.19;100036.13;5052376;28;20047;-75
2023/05/06 09:30:00;;;;;;;9.45;7.07;;;;;;;18.82;62.72;100043.34;5070348;28;20064;-76
2023/05/06 09:32:27;;;;;;;7.55;6.75;;;;;;;18.93;62.77;100036.19;5070381;28;20128;-76
2023/05/06 09:34:55;;;;;;;7.13;6.40;;;;;;;19.02;61.87;100032.72;5069857;28;20504;-76
2023/05/06 09:37:22;;;;;;;7.60;6.50;;;;;;;19.11;61.79;100036.44;5051811;28;20063;-76
2023/05/06 09:39:52;;;;;;;8.20;7.18;;;;;;;19.18;61.47;100039.41;5070511;28;20451;-76
2023/05/06 09:42:20;;;;;;;8.73;7.43;;;;;;;19.24;61.39;100033.50;5070415;28;20052;-76
2023/05/06 09:44:47;;;;;;;7.85;7.05;;;;;;;19.29;61.04;100038.44;5069969;28;20127;-76
2023/05/06 09:47:14;;;;;;;9.70;5.97;;;;;;;19.32;61.01;100041.66;5069752;28;20049;-76
2023/05/06 09:49:41;;;;;;;6.40;5.45;;;;;;;19.36;60.97;100040.41;5070163;28;20051;-76
2023/05/06 09:52:07;;;;;;;8.18;6.40;;;;;;;19.41;60.98;100034.66;5070020;28;20485;-76
2023/05/06 09:54:34;;;;;;;7.43;6.43;;;;;;;19.49;59.54;100033.97;5070271;28;20102;-76
2023/05/06 09:57:03;;;;;;;7.57;6.43;;;;;;;19.55;nan;100027.25;5069799;28;20051;-76
2023/05/06 09:59:30;;;;;;;7.28;6.30;;;;;;;19.61;59.08;100032.00;5069965;28;20063;-75
2023/05/06 10:01:58;;;;;;;7.32;6.45;;;;;;;19.66;59.15;100027.06;5069757;28;20056;-76
2023/05/06 10:04:26;;;;;;;7.22;6.32;;;;;;;19.73;59.46;100022.88;5070022;28;20106;-75
2023/05/06 10:06:55;;;;;;;7.38;6.43;;;;;;;19.83;59.63;100032.72;5069427;28;20613;-76
2023/05/06 10:09:25;;;;;;;9.63;6.88;;;;;;;19.92;59.88;100032.72;5070049;28;20045;-76
2023/05/06 10:11:53;;;;;;;9.13;7.30;;;;;;;20.04;nan;100033.44;5070323;28;20048;-76
2023/05/06 10:14:19;;;;;;;8.18;7.25;;;;;;;20.16;58.46;100034.13;5073628;28;20053;-76
2023/05/06 10:16:47;;;;;;;8.48;6.93;;;;;;;20.26;58.92;100030.59;5072678;28;20458;-75
2023/05/06 10:19:21;;;;;;;8.55;7.65;;;;;;;20.37;59.14;100024.25;5055739;28;20060;-75
2023/05/06 10:21:54;;;;;;;8.05;7.20;;;;;;;20.51;58.62;100026.44;5073466;28;20086;-76
2023/05/06 10:24:25;;;;;;;8.88;7.80;;;;;;;20.65;58.99;100026.94;5073637;28;20094;-77
2023/05/06 10:26:55;;;;;;;9.45;7.80;;;;;;;20.80;58.21;100020.13;5072584;28;20051;-76
2023/05/06 10:29:25;;;;;;;7.63;5.97;;;;;;;20.96;57.25;100019.50;5073337;28;20048;-76
2023/05/06 10:31:56;;;;;;;7.35;6.60;;;;;;;21.12;57.40;100011.81;5073683;28;20765;-76
2023/05/06 10:34:24;;;;;;;7.82;5.85;;;;;;;21.28;57.50;100005.81;5073420;28;20139;-77
2023/05/06 10:36:56;;;;;;;5.85;4.40;;;;;;;21.43;56.13;100015.00;5054684;28;20474;-77
2023/05/06 10:39:24;;;;;;;6.75;5.75;;;;;;;21.58;56.17;100007.28;5073303;28;20048;-76
2023/05/06 10:41:50;;;;;;;7.63;6.80;;;;;;;21.74;56.56;100001.25;5072860;28;20048;-76
2023/05/06 10:44:17;;;;;;;9.48;7.40;;;;;;;21.92;56.58;99999.53;5073288;28;20083;-77
2023/05/06 10:47:00;;;;;;;8.05;7.13;;;;;;;22.11;55.08;100006.53;5072486;28;20113;-76
2023/05/06 10:49:27;;;;;;;5.88;5.25;;;;;;;22.43;56.21;99994.31;5055372;28;20139;-76
2023/05/06 10:52:13;;;;;;;6.25;5.60;;;;;;;22.73;56.56;99997.50;5072951;28;20127;-76
2023/05/06 10:54:49;;;;;;;6.15;5.00;;;;;;;23.22;55.02;100000.50;5073118;28;20048;-75
2023/05/06 10:57:16;;;;;;;6.45;5.18;;;;;;;23.73;56.89;99989.69;5072566;28;20053;-76
2023/05/06 10:59:46;;;;;;;5.75;3.80;;;;;;;24.27;52.54;99993.69;5055120;28;20078;-76
2023/05/06 11:02:15;;;;;;;8.43;5.03;;;;;;;24.84;53.41;99988.28;5072810;28;20057;-76
2023/05/06 11:04:58;;;;;;;5.68;5.07;;;;;;;25.38;52.34;99984.75;5072602;28;20124;-77
2023/05/06 11:07:24;;;;;;;4.13;3.67;;;;;;;25.99;52.51;99979.56;5072385;28;20635;-77
2023/05/06 11:09:57;;;;;;;5.05;4.32;;;;;;;26.51;48.36;99977.03;5073009;28;20188;-76
2023/05/06 11:12:49;;;;;;;4.88;4.20;;;;;;;27.00;48.07;99975.56;5072532;28;20109;-77
2023/05/06 11:15:38;;;;;;;3.70;3.40;;;;;;;27.52;42.87;99980.03;5072200;28;20477;-76
2023/05/06 11:18:23;;;;;;;4.35;3.95;;;;;;;27.94;45.36;99972.91;5054388;28;20056;-76
2023/05/06 11:21:11;;;;;;;5.43;4.63;;;;;;;28.30;44.53;99972.97;5072491;28;20139;-76
2023/05/06 11:23:41;;;;;;;4.28;3.88;;;;;;;28.60;43.37;99961.84;5047114;28;20481;-77
2023/05/06 11:26:12;;;;;;;4.53;3.72;;;;;;;28.87;42.43;99964.66;5071997;28;20055;-77
2023/05/06 11:28:42;;;;;;;4.88;4.47;;;;;;;29.16;44.26;99976.25;5072052;28;20063;-77
2023/05/06 11:31:09;;;;;;;6.70;5.07;;;;;;;29.47;43.02;99960.41;5072275;28;20055;-76
2023/05/06 11:33:36;;;;;;;4.57;4.07;;;;;;;29.80;42.46;99958.78;5072147;28;20052;-77